Time;durP1;ratioP1;P1;durP2;ratioP2;P2;SDS_P1;SDS_P2;PMS_P1;PMS_P2;Temp;Humidity;BMP_temperature;BMP_pressure;BME280_temperature;BME280_humidity;BME280_pressure;Samples;Min_cycle;Max_cycle;Signal;HPM_P1;HPM_P2
2022/04/29 00:00:43;;;;;;;7.80;7.20;;;9.30;99.90;;;;;;4886228;29;21089;-94
2022/04/29 00:03:11;;;;;;;8.47;7.80;;;9.30;99.90;;;;;;4866234;29;20197;-93
2022/04/29 00:05:37;;;;;;;8.80;8.10;;;9.10;99.90;;;;;;4879041;29;20445;-94
2022/04/29 00:08:08;;;;;;;9.23;8.53;;;9.00;99.90;;;;;;4869312;29;20468;-93
2022/04/29 00:10:34;;;;;;;8.27;7.50;;;9.10;99.90;;;;;;4875317;29;20831;-94
2022/04/29 00:13:01;;;;;;;8.20;7.40;;;9.00;99.90;;;;;;4898250;29;20445;-94
2022/04/29 00:15:27;;;;;;;8.63;7.00;;;9.00;99.90;;;;;;4900800;29;20446;-94
2022/04/29 00:17:54;;;;;;;8.17;7.50;;;9.50;99.90;;;;;;4888414;29;21731;-95
2022/04/29 00:20:20;;;;;;;8.83;8.13;;;9.40;99.90;;;;;;4898464;29;20463;-95
2022/04/29 00:22:45;;;;;;;8.27;7.60;;;9.00;99.90;;;;;;4873162;29;21793;-93
2022/04/29 00:25:12;;;;;;;8.43;7.63;;;8.90;99.90;;;;;;4890142;29;20189;-94
2022/04/29 00:27:53;;;;;;;8.40;7.70;;;8.80;99.90;;;;;;4885826;29;20236;-94
2022/04/29 00:30:22;;;;;;;8.50;7.80;;;8.80;99.90;;;;;;4890095;29;20441;-93
2022/04/29 00:32:48;;;;;;;7.90;7.20;;;8.70;99.90;;;;;;4889870;29;20482;-93
2022/04/29 00:35:34;;;;;;;8.33;7.60;;;8.60;99.90;;;;;;4883386;29;21053;-93
2022/04/29 00:38:10;;;;;;;7.70;7.00;;;8.40;99.90;;;;;;4880190;29;20228;-93
2022/04/29 00:40:35;;;;;;;8.23;7.60;;;8.30;99.90;;;;;;4884442;29;20455;-93
2022/04/29 00:43:01;;;;;;;7.77;7.07;;;8.10;99.90;;;;;;4883539;29;20963;-93
2022/04/29 00:45:27;;;;;;;8.53;7.73;;;8.10;99.90;;;;;;4898930;29;20214;-92
2022/04/29 00:47:56;;;;;;;8.77;8.07;;;8.10;99.90;;;;;;4887337;29;20579;-93
2022/04/29 00:50:28;;;;;;;8.17;7.47;;;7.90;99.90;;;;;;4883066;29;21068;-94
2022/04/29 00:52:55;;;;;;;8.10;7.40;;;7.80;99.90;;;;;;4898686;29;20469;-94
2022/04/29 00:55:25;;;;;;;8.40;7.60;;;8.00;99.90;;;;;;4865212;29;20619;-94
2022/04/29 00:57:52;;;;;;;8.73;7.67;;;8.10;99.90;;;;;;4873239;29;20650;-93
2022/04/29 01:00:19;;;;;;;8.60;7.80;;;8.20;99.90;;;;;;4883483;29;20461;-93
2022/04/29 01:02:53;;;;;;;8.10;7.40;;;8.20;99.90;;;;;;4867385;29;20460;-93
2022/04/29 01:05:37;;;;;;;8.00;7.23;;;8.10;99.90;;;;;;4883438;29;20452;-93
2022/04/29 01:08:03;;;;;;;8.60;7.80;;;8.10;99.90;;;;;;4888730;29;20446;-94
2022/04/29 01:10:28;;;;;;;7.60;6.97;;;8.10;99.90;;;;;;4883897;29;21163;-93
2022/04/29 01:13:04;;;;;;;8.60;7.80;;;8.20;99.90;;;;;;4889633;29;20551;-95
2022/04/29 01:15:30;;;;;;;10.70;7.50;;;8.10;99.90;;;;;;4882843;29;20437;-93
2022/04/29 01:18:00;;;;;;;8.40;7.60;;;8.00;99.90;;;;;;4897930;29;20456;-93
2022/04/29 01:20:28;;;;;;;9.50;7.90;;;8.00;99.90;;;;;;4890989;29;22182;-94
2022/04/29 01:22:56;;;;;;;8.70;7.97;;;7.80;99.90;;;;;;4864262;29;20448;-92
2022/04/29 01:25:23;;;;;;;7.80;7.20;;;7.80;99.90;;;;;;4858383;29;20584;-92
2022/04/29 01:27:51;;;;;;;8.57;7.90;;;7.60;99.90;;;;;;4877678;29;20452;-93
2022/04/29 01:30:20;;;;;;;7.80;7.20;;;7.90;99.90;;;;;;4863969;29;20456;-94
2022/04/29 01:32:48;;;;;;;8.20;7.40;;;7.80;99.90;;;;;;4872666;29;20495;-92
2022/04/29 01:35:15;;;;;;;8.60;7.80;;;7.80;99.90;;;;;;4870460;29;20443;-94
2022/04/29 01:37:44;;;;;;;8.13;7.43;;;7.70;99.90;;;;;;4906002;29;20452;-92
2022/04/29 01:40:18;;;;;;;9.27;8.47;;;7.60;99.90;;;;;;4875536;29;20487;-94
2022/04/29 01:42:44;;;;;;;8.57;7.47;;;7.90;99.90;;;;;;4872473;29;20478;-92
2022/04/29 01:45:13;;;;;;;8.47;7.77;;;7.30;99.90;;;;;;4871153;29;20525;-93
2022/04/29 01:47:38;;;;;;;8.40;7.60;;;7.60;99.90;;;;;;4858403;29;20458;-93
2022/04/29 01:50:04;;;;;;;8.70;7.80;;;7.50;99.90;;;;;;4862560;29;20448;-94
2022/04/29 01:52:30;;;;;;;8.07;7.37;;;7.60;99.90;;;;;;4854236;29;20649;-94
2022/04/29 01:54:58;;;;;;;8.83;7.93;;;7.60;99.90;;;;;;4867009;29;21072;-92
2022/04/29 01:57:24;;;;;;;8.80;8.00;;;7.60;99.90;;;;;;4861904;29;20211;-93
2022/04/29 01:59:50;;;;;;;8.73;7.90;;;7.60;99.90;;;;;;4873737;29;20445;-92
2022/04/29 02:02:16;;;;;;;8.73;7.93;;;7.50;99.90;;;;;;4868077;29;20301;-92
2022/04/29 02:04:42;;;;;;;11.37;8.27;;;7.60;99.90;;;;;;4858305;29;20213;-92
2022/04/29 02:07:18;;;;;;;8.47;7.77;;;7.70;99.90;;;;;;4863868;29;21002;-92
2022/04/29 02:09:44;;;;;;;9.30;8.50;;;7.60;99.90;;;;;;4856043;29;20186;-92
2022/04/29 02:12:11;;;;;;;7.93;7.23;;;7.40;99.90;;;;;;4851721;29;20453;-92
2022/04/29 02:14:42;;;;;;;8.60;7.80;;;7.30;99.90;;;;;;4866551;29;20263;-92
2022/04/29 02:17:09;;;;;;;8.90;8.10;;;7.40;99.90;;;;;;4869962;29;20585;-92
2022/04/29 02:19:36;;;;;;;9.73;8.83;;;7.70;99.90;;;;;;4864260;29;20453;-94
2022/04/29 02:22:04;;;;;;;9.03;7.60;;;7.40;99.90;;;;;;4859452;29;20623;-95
2022/04/29 02:24:31;;;;;;;7.90;7.27;;;7.40;99.90;;;;;;4861285;29;21562;-92
2022/04/29 02:26:59;;;;;;;8.60;7.80;;;7.90;99.90;;;;;;4864673;29;20581;-94
2022/04/29 02:29:25;;;;;;;8.87;7.97;;;7.30;99.90;;;;;;4876247;29;20452;-93
2022/04/29 02:31:52;;;;;;;9.00;8.20;;;7.30;99.90;;;;;;4875813;29;20449;-92
2022/04/29 02:34:18;;;;;;;9.10;8.30;;;7.50;99.90;;;;;;4895089;29;20526;-93
2022/04/29 02:36:43;;;;;;;9.13;8.33;;;7.10;99.90;;;;;;4876753;29;20449;-93
2022/04/29 02:39:09;;;;;;;8.23;7.50;;;6.90;99.90;;;;;;4878219;29;20189;-90
2022/04/29 02:41:36;;;;;;;9.90;8.90;;;7.00;99.90;;;;;;4881821;29;20252;-93
2022/04/29 02:44:02;;;;;;;9.67;8.80;;;7.00;99.90;;;;;;4895795;29;20189;-92
2022/04/29 02:46:28;;;;;;;8.47;7.77;;;7.00;99.90;;;;;;4895598;29;20433;-91
2022/04/29 02:48:53;;;;;;;8.80;7.97;;;7.00;99.90;;;;;;4880309;29;20446;-92
2022/04/29 02:51:21;;;;;;;8.73;7.93;;;7.00;99.90;;;;;;4880133;29;20186;-93
2022/04/29 02:53:47;;;;;;;7.93;7.13;;;6.90;99.90;;;;;;4883481;29;20185;-93
2022/04/29 02:56:12;;;;;;;8.13;7.43;;;7.00;99.90;;;;;;4894974;29;20446;-94
2022/04/29 02:58:38;;;;;;;10.50;8.27;;;6.90;99.90;;;;;;4879797;29;20207;-93
2022/04/29 03:01:04;;;;;;;9.70;8.67;;;6.80;99.90;;;;;;4880191;29;20223;-92
2022/04/29 03:03:29;;;;;;;10.40;9.50;;;6.90;99.90;;;;;;4879603;29;20348;-92
2022/04/29 03:05:55;;;;;;;10.03;9.17;;;6.80;99.90;;;;;;4880370;29;20193;-94
2022/04/29 03:08:21;;;;;;;9.73;8.83;;;6.70;99.90;;;;;;4878759;29;20181;-94
2022/04/29 03:10:49;;;;;;;9.30;8.40;;;6.80;99.90;;;;;;4895274;29;20627;-93
2022/04/29 03:13:15;;;;;;;9.57;8.70;;;6.70;99.90;;;;;;4894742;29;20220;-92
2022/04/29 03:15:41;;;;;;;9.97;7.63;;;6.90;99.90;;;;;;4883413;29;20441;-93
2022/04/29 03:18:19;;;;;;;8.20;7.43;;;6.80;99.90;;;;;;4878550;29;20457;-91
2022/04/29 03:20:46;;;;;;;8.83;8.03;;;7.30;99.90;;;;;;4884982;29;20204;-92
2022/04/29 03:23:12;;;;;;;9.07;8.27;;;6.60;99.90;;;;;;4892255;29;20449;-94
2022/04/29 03:25:38;;;;;;;9.07;8.30;;;6.70;99.90;;;;;;4889632;29;20452;-92
2022/04/29 03:28:07;;;;;;;8.57;7.87;;;6.70;99.90;;;;;;4871944;29;21116;-93
2022/04/29 03:30:33;;;;;;;9.50;8.60;;;6.60;99.90;;;;;;4885765;29;20450;-93
2022/04/29 03:33:00;;;;;;;9.90;8.80;;;6.60;99.90;;;;;;4899399;29;20473;-94
2022/04/29 03:35:26;;;;;;;9.90;9.00;;;6.60;99.90;;;;;;4902900;29;20449;-93
2022/04/29 03:37:55;;;;;;;9.37;8.57;;;6.50;99.90;;;;;;4901554;29;20452;-93
2022/04/29 03:40:25;;;;;;;9.23;8.10;;;6.50;99.90;;;;;;4900261;29;20186;-93
2022/04/29 03:42:53;;;;;;;8.20;7.50;;;6.50;99.90;;;;;;4881965;29;20496;-91
2022/04/29 03:45:22;;;;;;;9.40;8.40;;;6.50;99.90;;;;;;4883950;29;20441;-93
2022/04/29 03:47:54;;;;;;;9.00;8.23;;;6.60;99.90;;;;;;4901987;29;20445;-93
2022/04/29 03:50:23;;;;;;;8.67;7.87;;;6.60;99.90;;;;;;4884540;29;20441;-93
2022/04/29 03:52:59;;;;;;;8.07;7.40;;;6.50;99.90;;;;;;4897763;29;20454;-93
2022/04/29 03:55:26;;;;;;;10.23;9.23;;;6.40;99.90;;;;;;4887829;29;20444;-92
2022/04/29 03:57:56;;;;;;;10.10;9.23;;;6.40;99.90;;;;;;4899150;29;20454;-93
2022/04/29 04:00:23;;;;;;;8.77;7.97;;;6.30;99.90;;;;;;4894049;29;20445;-92
2022/04/29 04:02:49;;;;;;;10.03;9.13;;;6.40;99.90;;;;;;4903364;29;20485;-93
2022/04/29 04:05:16;;;;;;;9.00;8.20;;;6.50;99.90;;;;;;4892816;29;20466;-92
2022/04/29 04:07:45;;;;;;;8.07;7.27;;;6.50;99.90;;;;;;4885393;29;20492;-92
2022/04/29 04:10:26;;;;;;;10.10;9.20;;;6.60;99.90;;;;;;4889652;29;20444;-93
2022/04/29 04:12:52;;;;;;;10.80;9.80;;;6.70;99.90;;;;;;4905478;29;20971;-93
2022/04/29 04:15:19;;;;;;;9.53;8.70;;;7.00;99.90;;;;;;4880493;29;20521;-91
2022/04/29 04:18:02;;;;;;;11.87;9.33;;;6.80;99.90;;;;;;4900284;29;20892;-91
2022/04/29 04:20:27;;;;;;;8.53;7.73;;;6.80;99.90;;;;;;4890987;29;20464;-89
2022/04/29 04:23:01;;;;;;;10.00;9.10;;;6.60;99.90;;;;;;4874422;29;20484;-96
2022/04/29 04:25:30;;;;;;;10.20;9.30;;;6.60;99.90;;;;;;4890378;29;20189;-95
2022/04/29 04:33:21;;;;;;;10.90;9.80;;;6.50;99.90;;;;;;4902839;29;20488;-91
2022/04/29 04:35:50;;;;;;;10.33;9.27;;;6.60;99.90;;;;;;4911400;29;20431;-96
2022/04/29 04:38:18;;;;;;;10.93;9.83;;;6.70;99.90;;;;;;4920414;29;20764;-96
2022/04/29 04:40:43;;;;;;;9.87;8.97;;;7.00;99.90;;;;;;4902755;29;20441;-90
2022/04/29 04:43:09;;;;;;;10.27;9.37;;;7.30;99.90;;;;;;4892106;29;20203;-95
2022/04/29 04:45:50;;;;;;;9.50;8.70;;;7.50;99.90;;;;;;4910511;29;20201;-92
2022/04/29 04:48:16;;;;;;;10.67;9.63;;;7.50;99.90;;;;;;4905211;29;21167;-93
2022/04/29 04:50:42;;;;;;;11.43;10.43;;;7.40;99.90;;;;;;4909091;29;21017;-87
2022/04/29 04:53:10;;;;;;;10.73;9.83;;;7.40;99.90;;;;;;4912482;29;20674;-95
2022/04/29 04:56:01;;;;;;;13.70;10.23;;;7.50;99.90;;;;;;4914693;29;20188;-96
2022/04/29 04:58:32;;;;;;;9.63;8.77;;;7.70;99.90;;;;;;4914265;29;20445;-94
2022/04/29 05:00:59;;;;;;;10.30;9.37;;;7.70;99.90;;;;;;4911619;29;20484;-96
2022/04/29 05:06:15;;;;;;;10.80;9.80;;;7.60;99.90;;;;;;5591688;23;20492;-92
2022/04/29 13:57:11;;;;;;;7.30;6.80;;;22.20;58.10;;;;;;1408141;23;20824;31
2022/04/29 14:00:13;;;;;;;7.27;6.67;;;21.60;60.00;;;;;;4882329;29;20478;-95
2022/04/29 14:02:40;;;;;;;7.77;7.00;;;21.60;57.90;;;;;;4868946;29;20488;-88
2022/04/29 14:05:07;;;;;;;7.87;7.23;;;21.40;59.20;;;;;;4869911;29;20461;-90
2022/04/29 14:07:33;;;;;;;8.03;7.43;;;21.60;60.50;;;;;;4866513;29;20441;-89
2022/04/29 14:09:59;;;;;;;8.00;7.30;;;22.10;59.50;;;;;;4887221;29;20446;-89
2022/04/29 14:12:26;;;;;;;8.40;7.60;;;22.20;58.70;;;;;;4870902;29;20454;-89
2022/04/29 14:14:53;;;;;;;6.90;6.40;;;21.50;58.50;;;;;;4881851;29;21147;-90
2022/04/29 14:17:19;;;;;;;6.60;6.10;;;21.40;56.80;;;;;;4871970;29;20457;-91
2022/04/29 14:19:44;;;;;;;7.17;6.57;;;21.50;58.20;;;;;;4854221;29;20453;-90
2022/04/29 14:22:40;;;;;;;6.97;6.33;;;21.10;61.50;;;;;;4954837;23;20513;-92
2022/04/29 14:25:46;;;;;;;7.30;6.70;;;21.00;59.90;;;;;;4880265;29;20757;-90
2022/04/29 14:28:45;;;;;;;6.37;5.77;;;20.90;57.50;;;;;;4888416;29;20476;-94
2022/04/29 14:31:13;;;;;;;7.43;6.10;;;20.70;58.90;;;;;;4885945;29;20441;-94
2022/04/29 14:33:44;;;;;;;7.07;6.50;;;20.70;61.10;;;;;;4896182;29;20456;-96
2022/04/29 14:36:31;;;;;;;6.63;6.13;;;21.20;56.90;;;;;;4895093;29;20449;-96
2022/04/29 14:38:59;;;;;;;6.23;5.83;;;21.50;56.80;;;;;;4896327;29;20548;-96
2022/04/29 14:41:30;;;;;;;8.63;6.27;;;22.10;57.80;;;;;;4885682;29;20454;-95
2022/04/29 14:43:59;;;;;;;6.83;6.23;;;22.20;59.10;;;;;;4888035;29;20449;-96
2022/04/29 14:46:29;;;;;;;6.50;5.93;;;22.30;57.40;;;;;;4894374;29;20521;-95
2022/04/29 14:48:54;;;;;;;5.87;5.40;;;22.50;56.90;;;;;;4901115;29;20502;-94
2022/04/29 14:51:20;;;;;;;5.67;5.17;;;22.60;55.90;;;;;;4894795;29;20461;-95
2022/04/29 14:53:48;;;;;;;6.57;5.90;;;22.50;56.00;;;;;;4926253;29;20188;-95
2022/04/29 14:56:14;;;;;;;5.10;4.77;;;22.40;53.80;;;;;;4898395;29;20189;-96
2022/04/29 14:58:39;;;;;;;5.57;5.17;;;22.90;52.70;;;;;;4871419;29;20457;-95
2022/04/29 15:01:05;;;;;;;5.57;5.17;;;22.80;54.70;;;;;;4887768;29;20193;-96
2022/04/29 15:03:31;;;;;;;5.90;5.40;;;22.80;55.60;;;;;;4881895;29;20220;-95
2022/04/29 15:06:04;;;;;;;7.60;5.50;;;23.00;55.50;;;;;;4905257;29;20253;-96
2022/04/29 15:08:33;;;;;;;6.20;5.60;;;23.30;53.40;;;;;;4891878;29;20480;-95
2022/04/29 15:16:22;;;;;;;7.27;6.57;;;22.60;54.60;;;;;;4891093;29;20449;-96
2022/04/29 15:19:55;;;;;;;6.80;6.20;;;22.50;53.80;;;;;;4904420;29;20557;-96
2022/04/29 15:22:47;;;;;;;6.77;6.17;;;21.90;56.50;;;;;;4884435;29;20493;-96
2022/04/29 15:25:14;;;;;;;6.37;5.87;;;21.00;60.10;;;;;;4872110;29;21801;-95
2022/04/29 15:27:39;;;;;;;6.97;6.47;;;21.20;61.60;;;;;;4870950;29;20512;-96
2022/04/29 15:30:06;;;;;;;6.87;6.37;;;20.70;61.10;;;;;;4850344;29;20454;-95
2022/04/29 15:32:33;;;;;;;6.77;6.17;;;21.50;58.50;;;;;;4865907;29;20269;-95
2022/04/29 15:34:59;;;;;;;6.80;6.30;;;22.70;58.40;;;;;;4874208;29;20468;-95
2022/04/29 15:37:48;;;;;;;6.67;5.97;;;22.90;56.20;;;;;;4895054;29;21230;-95
2022/04/29 15:40:29;;;;;;;5.53;5.13;;;23.70;56.30;;;;;;4907391;29;20184;-94
2022/04/29 15:43:23;;;;;;;6.77;6.20;;;24.50;53.30;;;;;;4880860;29;20521;-94
2022/04/29 16:03:56;;;;;;;6.77;6.27;;;21.10;57.60;;;;;;4903496;29;20583;-92
2022/04/29 16:06:23;;;;;;;6.30;5.70;;;20.60;59.00;;;;;;4894030;29;20446;-88
2022/04/29 16:08:50;;;;;;;6.80;6.23;;;20.50;58.00;;;;;;4881336;29;20815;-88
2022/04/29 16:11:18;;;;;;;7.30;6.60;;;20.50;58.00;;;;;;4889753;29;20441;-90
2022/04/29 16:13:45;;;;;;;8.10;6.20;;;20.60;57.10;;;;;;4900347;29;20448;-95
2022/04/29 16:16:13;;;;;;;7.10;6.47;;;21.00;59.60;;;;;;4888584;29;20475;-95
2022/04/29 16:21:24;;;;;;;6.60;6.00;;;20.80;57.80;;;;;;4896778;29;20866;-94
2022/04/29 16:26:37;;;;;;;7.50;6.80;;;20.40;59.40;;;;;;4894599;29;20211;-92
2022/04/29 16:29:06;;;;;;;6.60;6.10;;;20.50;60.60;;;;;;4921999;29;20448;-91
2022/04/29 16:31:36;;;;;;;6.70;6.13;;;20.50;61.10;;;;;;4916378;29;20451;-91
2022/04/29 16:34:02;;;;;;;6.83;6.33;;;20.60;59.50;;;;;;4910482;29;20475;-90
2022/04/29 16:36:42;;;;;;;6.90;6.30;;;20.80;60.00;;;;;;4923121;29;20529;-95
2022/04/29 16:39:08;;;;;;;6.53;6.03;;;20.90;60.50;;;;;;4897846;29;20448;-96
2022/04/29 16:41:34;;;;;;;7.70;6.80;;;20.60;61.60;;;;;;4904588;29;21009;-94
2022/04/29 16:44:00;;;;;;;8.27;7.20;;;20.60;63.50;;;;;;4896816;29;20539;-96
2022/04/29 16:46:30;;;;;;;6.83;6.23;;;20.00;65.10;;;;;;4905710;29;20196;-95
2022/04/29 16:48:56;;;;;;;6.83;6.23;;;20.00;66.70;;;;;;4904941;29;20584;-93
2022/04/29 16:51:24;;;;;;;6.30;5.83;;;19.80;64.30;;;;;;4888498;29;21014;-92
2022/04/29 16:53:53;;;;;;;7.93;6.33;;;19.70;64.10;;;;;;4904594;29;20637;-94
2022/04/29 16:56:19;;;;;;;6.70;6.20;;;19.30;62.20;;;;;;4892163;29;20539;-92
2022/04/29 16:58:45;;;;;;;7.07;6.47;;;19.10;64.00;;;;;;5035832;23;21247;-91
2022/04/29 17:01:18;;;;;;;7.07;6.47;;;19.10;64.40;;;;;;4890031;29;20240;-94
2022/04/29 17:06:25;;;;;;;7.47;6.77;;;18.80;66.00;;;;;;5775550;23;20527;-96
2022/04/29 17:08:53;;;;;;;6.83;6.07;;;18.80;64.90;;;;;;5174894;23;20504;-93
2022/04/29 17:11:23;;;;;;;6.30;5.80;;;18.80;65.90;;;;;;4861561;29;21172;-90
2022/04/29 17:13:56;;;;;;;7.10;6.13;;;18.90;67.30;;;;;;4875165;29;20464;-95
2022/04/29 17:19:36;;;;;;;6.30;5.70;;;19.10;69.20;;;;;;5039711;23;20519;-96
2022/04/29 17:58:29;;;;;;;5.40;5.00;;;17.50;85.00;;;;;;4976113;23;20487;-96
2022/04/29 18:00:55;;;;;;;5.70;5.20;;;17.30;86.50;;;;;;4886003;29;20843;-95
2022/04/29 18:03:30;;;;;;;6.23;5.63;;;17.20;90.10;;;;;;4897454;29;20487;-95
2022/04/29 18:05:55;;;;;;;5.80;5.30;;;16.90;91.30;;;;;;4924911;29;20459;-96
2022/04/29 18:08:24;;;;;;;5.93;5.43;;;17.10;92.00;;;;;;4899412;29;20495;-96
2022/04/29 18:23:52;;;;;;;5.87;5.37;;;16.00;94.60;;;;;;4901364;29;20498;-95
2022/04/29 18:26:17;;;;;;;5.97;5.47;;;15.80;95.80;;;;;;4904495;29;20480;-93
2022/04/29 18:28:43;;;;;;;5.87;5.37;;;15.90;97.20;;;;;;4899155;29;20582;-94
2022/04/29 18:33:48;;;;;;;5.07;4.67;;;15.50;96.60;;;;;;5103532;23;21098;-89
2022/04/29 18:36:15;;;;;;;5.37;4.97;;;15.40;97.00;;;;;;4874187;29;20452;-91
2022/04/29 18:38:41;;;;;;;5.60;5.10;;;15.30;97.20;;;;;;4889336;29;20506;-93
2022/04/29 18:41:07;;;;;;;5.07;4.67;;;15.30;98.00;;;;;;4890942;29;20875;-93
2022/04/29 18:43:33;;;;;;;5.80;5.30;;;15.10;98.40;;;;;;4894500;29;20223;-88
2022/04/29 18:45:59;;;;;;;4.87;4.50;;;15.00;98.60;;;;;;4888204;29;21217;-89
2022/04/29 18:48:25;;;;;;;5.40;4.90;;;15.30;98.50;;;;;;4890371;29;20592;-90
2022/04/29 18:50:51;;;;;;;5.80;5.10;;;14.90;98.50;;;;;;4889636;29;20199;-89
2022/04/29 18:53:16;;;;;;;5.93;5.53;;;14.80;98.60;;;;;;4887692;29;20813;-90
2022/04/29 18:55:42;;;;;;;5.37;5.00;;;14.80;98.30;;;;;;4887251;29;20211;-90
2022/04/29 18:58:18;;;;;;;5.80;5.30;;;14.70;99.00;;;;;;4888917;29;20192;-90
2022/04/29 19:00:44;;;;;;;6.30;5.80;;;14.60;99.60;;;;;;4890172;29;20790;-88
2022/04/29 19:03:10;;;;;;;6.50;5.90;;;14.50;99.90;;;;;;4884041;29;20317;-90
2022/04/29 19:05:38;;;;;;;16.77;13.10;;;14.60;99.90;;;;;;4893138;29;20538;-90
2022/04/29 19:08:06;;;;;;;12.33;11.13;;;14.30;99.90;;;;;;4893315;29;20488;-92
2022/04/29 19:10:33;;;;;;;7.70;7.00;;;14.30;99.70;;;;;;4888445;29;20433;-93
2022/04/29 19:12:58;;;;;;;6.40;5.80;;;14.10;99.90;;;;;;4893909;29;20487;-90
2022/04/29 19:15:25;;;;;;;6.30;5.80;;;14.30;99.90;;;;;;4897637;29;20481;-92
2022/04/29 19:17:54;;;;;;;6.47;5.97;;;14.00;99.90;;;;;;4894001;29;20744;-93
2022/04/29 19:20:30;;;;;;;6.10;5.60;;;13.90;99.90;;;;;;4900572;29;20450;-93
2022/04/29 19:22:56;;;;;;;6.30;5.80;;;14.00;99.60;;;;;;4893047;29;20483;-93
2022/04/29 19:25:22;;;;;;;7.23;5.83;;;13.80;98.70;;;;;;4894077;29;20795;-93
2022/04/29 19:27:47;;;;;;;6.20;5.70;;;14.00;99.30;;;;;;4906639;29;20538;-94
2022/04/29 19:30:47;;;;;;;6.07;5.57;;;13.90;99.70;;;;;;4913288;29;20192;-96
2022/04/29 19:33:04;;;;;;;6.73;6.23;;;14.00;99.90;;;;;;4910449;29;20216;-96
2022/04/29 19:35:30;;;;;;;5.90;5.40;;;13.90;99.90;;;;;;4914963;29;20456;-91
2022/04/29 19:37:57;;;;;;;6.00;5.60;;;13.80;99.90;;;;;;4895660;29;20468;-93
2022/04/29 19:40:38;;;;;;;5.63;5.23;;;13.70;99.90;;;;;;4921874;29;20808;-92
2022/04/29 19:43:04;;;;;;;5.97;5.57;;;13.70;99.90;;;;;;4903987;29;20484;-95
2022/04/29 19:45:30;;;;;;;6.23;5.63;;;13.70;99.90;;;;;;4903986;29;20446;-91
2022/04/29 19:47:56;;;;;;;8.90;8.20;;;13.80;99.90;;;;;;4880979;29;20204;-92
2022/04/29 19:50:22;;;;;;;7.60;7.00;;;13.60;99.90;;;;;;4879024;29;20445;-95
2022/04/29 19:52:48;;;;;;;9.17;7.00;;;13.50;99.90;;;;;;4901128;29;20187;-95
2022/04/29 19:55:14;;;;;;;6.87;6.20;;;13.50;99.90;;;;;;4898902;29;20188;-95
2022/04/29 20:00:25;;;;;;;6.83;6.33;;;13.90;99.90;;;;;;4899285;29;20720;-96
2022/04/29 20:05:41;;;;;;;6.80;6.20;;;13.40;99.90;;;;;;4892968;29;20198;-91
2022/04/29 20:08:10;;;;;;;7.33;6.63;;;13.30;99.90;;;;;;4894573;29;20499;-93
2022/04/29 20:10:36;;;;;;;7.73;7.07;;;13.20;99.90;;;;;;4902174;29;20519;-91
2022/04/29 20:13:02;;;;;;;7.20;6.60;;;13.10;99.90;;;;;;4898377;29;20456;-93
2022/04/29 20:15:28;;;;;;;6.70;6.20;;;13.10;99.90;;;;;;4902608;29;20499;-93
2022/04/29 20:17:55;;;;;;;6.67;6.17;;;13.10;99.90;;;;;;4909113;29;20439;-93
2022/04/29 20:20:38;;;;;;;8.20;7.50;;;13.10;99.90;;;;;;4908035;29;21017;-95
2022/04/29 20:23:11;;;;;;;6.53;6.03;;;13.10;99.90;;;;;;4917470;29;20496;-95
2022/04/29 20:25:38;;;;;;;6.83;6.13;;;13.10;99.90;;;;;;4897831;29;20583;-93
2022/04/29 20:28:19;;;;;;;7.20;6.63;;;13.00;99.90;;;;;;4904595;29;20452;-94
2022/04/29 20:31:30;;;;;;;7.20;6.70;;;12.90;99.90;;;;;;4903535;29;21048;-93
2022/04/29 20:33:56;;;;;;;7.80;7.20;;;12.80;99.90;;;;;;4899137;29;20518;-93
2022/04/29 20:36:24;;;;;;;8.80;7.30;;;12.80;99.90;;;;;;4896159;29;20494;-94
2022/04/29 20:38:55;;;;;;;8.27;7.67;;;12.70;99.90;;;;;;4902276;29;20447;-95
2022/04/29 20:44:05;;;;;;;9.70;8.90;;;12.60;99.90;;;;;;4903163;29;20223;-94
2022/04/29 20:46:37;;;;;;;9.30;8.47;;;12.50;99.90;;;;;;4892500;29;20444;-92
2022/04/29 20:49:19;;;;;;;9.67;8.87;;;12.20;99.90;;;;;;4883234;29;20974;-93
2022/04/29 20:51:44;;;;;;;8.53;7.67;;;12.20;99.90;;;;;;4877452;29;20456;-94
2022/04/29 20:54:10;;;;;;;9.07;7.00;;;12.40;99.90;;;;;;4881870;29;20453;-94
2022/04/29 20:56:35;;;;;;;9.07;7.20;;;12.40;99.90;;;;;;4899857;29;20180;-93
2022/04/29 20:59:01;;;;;;;10.67;6.73;;;12.50;99.90;;;;;;4899301;29;20199;-92
2022/04/29 21:01:27;;;;;;;9.63;7.27;;;12.70;99.90;;;;;;4889428;29;20177;-93
2022/04/29 21:03:55;;;;;;;7.80;7.20;;;12.30;99.90;;;;;;4883786;29;20246;-95
2022/04/29 21:06:21;;;;;;;8.57;7.40;;;12.40;99.90;;;;;;4875390;29;20188;-95
2022/04/29 21:08:47;;;;;;;7.97;7.27;;;12.30;99.90;;;;;;4874749;29;20448;-93
2022/04/29 21:11:16;;;;;;;8.57;7.87;;;12.30;99.90;;;;;;4878404;29;20447;-95
2022/04/29 21:13:42;;;;;;;7.70;7.10;;;12.20;99.90;;;;;;4902240;29;20444;-94
2022/04/29 21:16:11;;;;;;;9.97;8.53;;;12.20;99.90;;;;;;4884147;29;20444;-95
2022/04/29 21:18:37;;;;;;;8.03;7.43;;;12.10;99.90;;;;;;4888564;29;20789;-95
2022/04/29 21:21:11;;;;;;;8.77;8.00;;;12.20;99.90;;;;;;4904727;29;20444;-95
2022/04/29 21:23:37;;;;;;;8.20;7.50;;;12.20;99.90;;;;;;4904230;29;20222;-95
2022/04/29 21:26:04;;;;;;;8.67;7.87;;;12.20;99.90;;;;;;4907852;29;20448;-94
2022/04/29 21:31:16;;;;;;;8.50;7.90;;;12.20;99.90;;;;;;4897576;29;20629;-94
2022/04/29 21:33:41;;;;;;;9.23;8.43;;;12.20;99.90;;;;;;4907756;29;20621;-95
2022/04/29 21:36:07;;;;;;;8.90;8.10;;;12.30;99.90;;;;;;4900747;29;20562;-95
2022/04/29 21:38:33;;;;;;;9.10;8.40;;;12.30;99.90;;;;;;4875839;29;20376;-94
2022/04/29 21:40:59;;;;;;;9.10;8.20;;;12.20;99.90;;;;;;4888539;29;20276;-95
2022/04/29 21:43:25;;;;;;;9.30;8.50;;;12.10;99.90;;;;;;4893183;29;20476;-95
2022/04/29 21:45:51;;;;;;;10.10;9.07;;;12.10;99.90;;;;;;4892638;29;20325;-96
2022/04/29 21:48:17;;;;;;;9.97;9.07;;;12.00;99.90;;;;;;4887009;29;20199;-95
2022/04/29 21:50:43;;;;;;;8.97;8.17;;;12.00;99.90;;;;;;4882314;29;20199;-96
2022/04/29 21:53:09;;;;;;;8.50;7.90;;;12.00;99.90;;;;;;4878454;29;20710;-95
2022/04/29 21:55:35;;;;;;;9.33;8.43;;;11.90;99.90;;;;;;4897798;29;20267;-95
2022/04/29 21:58:02;;;;;;;8.63;7.93;;;11.90;99.90;;;;;;4887341;29;20201;-95
2022/04/29 22:00:35;;;;;;;8.90;7.80;;;11.90;99.90;;;;;;4888089;29;20458;-94
2022/04/29 22:03:01;;;;;;;8.60;8.00;;;12.20;99.90;;;;;;4887355;29;20506;-95
2022/04/29 22:05:26;;;;;;;8.53;7.80;;;12.00;99.90;;;;;;4904041;29;20455;-94
2022/04/29 22:07:52;;;;;;;8.90;7.83;;;12.00;99.90;;;;;;4879551;29;20448;-94
2022/04/29 22:10:18;;;;;;;8.87;8.10;;;12.00;99.90;;;;;;4881684;29;20237;-94
2022/04/29 22:12:44;;;;;;;11.97;8.97;;;12.00;99.90;;;;;;4900496;29;20196;-93
2022/04/29 22:15:10;;;;;;;8.83;8.03;;;12.00;99.90;;;;;;4880794;29;20189;-94
2022/04/29 22:17:35;;;;;;;8.83;8.13;;;11.90;99.90;;;;;;4885850;29;20646;-95
2022/04/29 22:20:15;;;;;;;9.27;8.37;;;11.80;99.90;;;;;;4889486;29;20196;-96
2022/04/29 22:22:41;;;;;;;9.90;8.73;;;11.90;99.90;;;;;;4875064;29;20355;-94
2022/04/29 22:25:09;;;;;;;9.70;8.97;;;11.90;99.90;;;;;;4883489;29;20445;-94
2022/04/29 22:27:35;;;;;;;9.03;8.27;;;12.00;99.90;;;;;;4905404;29;20192;-95
2022/04/29 22:30:03;;;;;;;8.73;8.03;;;12.00;99.90;;;;;;4883422;29;21021;-95
2022/04/29 22:32:29;;;;;;;10.50;9.47;;;12.00;99.90;;;;;;4882725;29;20480;-95
2022/04/29 22:34:55;;;;;;;8.80;7.97;;;12.00;99.90;;;;;;4892795;29;20567;-95
2022/04/29 22:37:21;;;;;;;12.20;9.10;;;12.00;99.90;;;;;;4882238;29;20311;-94
2022/04/29 22:39:48;;;;;;;10.07;9.17;;;12.20;99.90;;;;;;4875686;29;20464;-95
2022/04/29 22:42:14;;;;;;;9.43;8.60;;;11.90;99.90;;;;;;4904213;29;20223;-95
2022/04/29 22:44:40;;;;;;;9.60;8.80;;;12.00;99.90;;;;;;4898588;29;20504;-93
2022/04/29 22:47:05;;;;;;;11.10;10.20;;;11.90;99.90;;;;;;4895979;29;20452;-93
2022/04/29 22:49:31;;;;;;;9.90;9.10;;;12.00;99.90;;;;;;4883525;29;20335;-94
2022/04/29 22:51:57;;;;;;;9.37;8.67;;;12.00;99.90;;;;;;4884849;29;20181;-93
2022/04/29 22:54:22;;;;;;;9.53;8.83;;;11.70;99.90;;;;;;4888378;29;20189;-93
2022/04/29 22:56:50;;;;;;;9.90;9.10;;;11.70;99.90;;;;;;4912850;28;20204;-93
2022/04/29 22:59:16;;;;;;;9.70;8.90;;;12.00;99.90;;;;;;4874958;29;20612;-93
2022/04/29 23:01:41;;;;;;;9.60;8.80;;;11.70;99.90;;;;;;4885823;29;20441;-92
2022/04/29 23:04:07;;;;;;;10.20;9.40;;;11.70;99.90;;;;;;4898122;29;20302;-93
2022/04/29 23:06:38;;;;;;;11.53;9.40;;;11.70;99.90;;;;;;4880251;29;20189;-95
2022/04/29 23:09:05;;;;;;;10.47;9.57;;;11.70;99.90;;;;;;4885581;29;21998;-95
2022/04/29 23:11:33;;;;;;;10.63;9.63;;;11.70;99.90;;;;;;4884661;29;20467;-95
2022/04/29 23:14:21;;;;;;;10.20;9.30;;;11.70;99.90;;;;;;4881650;29;20521;-95
2022/04/29 23:16:46;;;;;;;10.10;9.20;;;11.70;99.90;;;;;;4880237;29;20483;-95
2022/04/29 23:19:12;;;;;;;11.03;10.03;;;11.50;99.90;;;;;;4907650;29;20543;-95
2022/04/29 23:21:42;;;;;;;10.50;9.67;;;11.70;99.90;;;;;;4890134;29;20189;-95
2022/04/29 23:24:11;;;;;;;11.23;10.13;;;11.60;99.90;;;;;;4896974;29;20242;-94
2022/04/29 23:26:40;;;;;;;12.07;10.90;;;11.40;99.90;;;;;;4889174;29;20451;-96
2022/04/29 23:29:07;;;;;;;10.60;9.70;;;11.40;99.90;;;;;;4886755;29;20571;-96
2022/04/29 23:31:39;;;;;;;10.77;9.87;;;11.50;99.90;;;;;;4886079;29;21222;-95